sensor_id;sensor_type;location;lat;lon;timestamp;P1;durP1;ratioP1;P2;durP2;ratioP2
2998;SDS011;1509;51.964;7.628;2023-04-29T00:02:19;54.13;;;29.20;;
2998;SDS011;1509;51.964;7.628;2023-04-29T00:04:45;52.50;;;31.03;;
2998;SDS011;1509;51.964;7.628;2023-04-29T00:07:10;52.03;;;28.30;;
2998;SDS011;1509;51.964;7.628;2023-04-29T00:09:39;54.80;;;30.60;;
2998;SDS011;1509;51.964;7.628;2023-04-29T00:12:05;53.73;;;29.60;;
2998;SDS011;1509;51.964;7.628;2023-04-29T00:14:30;67.93;;;32.70;;
2998;SDS011;1509;51.964;7.628;2023-04-29T00:16:56;58.50;;;30.40;;
2998;SDS011;1509;51.964;7.628;2023-04-29T00:19:22;61.43;;;33.70;;
2998;SDS011;1509;51.964;7.628;2023-04-29T00:21:47;61.07;;;31.40;;
2998;SDS011;1509;51.964;7.628;2023-04-29T00:24:13;58.40;;;32.33;;
2998;SDS011;1509;51.964;7.628;2023-04-29T00:26:40;52.60;;;28.40;;
2998;SDS011;1509;51.964;7.628;2023-04-29T00:29:06;59.67;;;33.00;;
2998;SDS011;1509;51.964;7.628;2023-04-29T00:31:32;57.63;;;31.40;;
2998;SDS011;1509;51.964;7.628;2023-04-29T00:34:01;60.73;;;31.60;;
2998;SDS011;1509;51.964;7.628;2023-04-29T00:36:26;56.30;;;30.23;;
2998;SDS011;1509;51.964;7.628;2023-04-29T00:38:53;57.60;;;30.67;;
2998;SDS011;1509;51.964;7.628;2023-04-29T00:41:18;58.33;;;31.10;;
2998;SDS011;1509;51.964;7.628;2023-04-29T00:43:44;63.03;;;29.90;;
2998;SDS011;1509;51.964;7.628;2023-04-29T00:46:16;64.00;;;30.57;;
2998;SDS011;1509;51.964;7.628;2023-04-29T00:48:42;70.50;;;31.07;;
2998;SDS011;1509;51.964;7.628;2023-04-29T00:51:08;66.40;;;32.03;;
2998;SDS011;1509;51.964;7.628;2023-04-29T00:53:34;65.97;;;31.10;;
2998;SDS011;1509;51.964;7.628;2023-04-29T00:56:00;59.00;;;29.73;;
2998;SDS011;1509;51.964;7.628;2023-04-29T00:58:27;59.80;;;30.57;;
2998;SDS011;1509;51.964;7.628;2023-04-29T01:01:02;58.20;;;28.87;;
2998;SDS011;1509;51.964;7.628;2023-04-29T01:03:28;65.90;;;30.53;;
2998;SDS011;1509;51.964;7.628;2023-04-29T01:06:03;64.67;;;30.93;;
2998;SDS011;1509;51.964;7.628;2023-04-29T01:08:47;60.97;;;31.57;;
2998;SDS011;1509;51.964;7.628;2023-04-29T01:11:25;60.83;;;31.00;;
2998;SDS011;1509;51.964;7.628;2023-04-29T01:13:59;69.13;;;29.47;;
2998;SDS011;1509;51.964;7.628;2023-04-29T01:16:36;53.07;;;26.97;;
2998;SDS011;1509;51.964;7.628;2023-04-29T01:22:06;62.27;;;28.30;;
2998;SDS011;1509;51.964;7.628;2023-04-29T01:24:32;61.43;;;30.40;;
2998;SDS011;1509;51.964;7.628;2023-04-29T01:27:00;53.80;;;26.43;;
2998;SDS011;1509;51.964;7.628;2023-04-29T01:29:39;56.50;;;26.47;;
2998;SDS011;1509;51.964;7.628;2023-04-29T01:32:14;54.77;;;27.20;;
2998;SDS011;1509;51.964;7.628;2023-04-29T01:35:03;62.10;;;28.30;;
2998;SDS011;1509;51.964;7.628;2023-04-29T01:37:48;56.17;;;26.67;;
2998;SDS011;1509;51.964;7.628;2023-04-29T01:40:25;51.53;;;27.10;;
2998;SDS011;1509;51.964;7.628;2023-04-29T01:43:01;57.43;;;27.17;;
2998;SDS011;1509;51.964;7.628;2023-04-29T01:45:28;57.77;;;27.60;;
2998;SDS011;1509;51.964;7.628;2023-04-29T01:47:56;52.87;;;28.10;;
2998;SDS011;1509;51.964;7.628;2023-04-29T01:50:23;48.93;;;27.23;;
2998;SDS011;1509;51.964;7.628;2023-04-29T01:52:48;56.73;;;27.40;;
2998;SDS011;1509;51.964;7.628;2023-04-29T01:55:14;55.87;;;26.37;;
2998;SDS011;1509;51.964;7.628;2023-04-29T01:57:40;58.50;;;26.77;;
2998;SDS011;1509;51.964;7.628;2023-04-29T02:00:06;55.13;;;26.20;;
2998;SDS011;1509;51.964;7.628;2023-04-29T02:02:33;46.90;;;26.07;;
2998;SDS011;1509;51.964;7.628;2023-04-29T02:04:59;47.20;;;24.23;;
2998;SDS011;1509;51.964;7.628;2023-04-29T02:07:24;59.07;;;28.07;;
2998;SDS011;1509;51.964;7.628;2023-04-29T02:09:50;50.43;;;26.27;;
2998;SDS011;1509;51.964;7.628;2023-04-29T02:12:15;43.70;;;23.07;;
2998;SDS011;1509;51.964;7.628;2023-04-29T02:14:42;51.08;;;29.00;;
2998;SDS011;1509;51.964;7.628;2023-04-29T02:17:07;43.47;;;24.80;;
2998;SDS011;1509;51.964;7.628;2023-04-29T02:19:33;50.50;;;26.80;;
2998;SDS011;1509;51.964;7.628;2023-04-29T02:21:59;50.00;;;24.57;;
2998;SDS011;1509;51.964;7.628;2023-04-29T02:24:25;48.20;;;24.47;;
2998;SDS011;1509;51.964;7.628;2023-04-29T02:26:50;44.33;;;23.90;;
2998;SDS011;1509;51.964;7.628;2023-04-29T02:29:17;46.60;;;25.10;;
2998;SDS011;1509;51.964;7.628;2023-04-29T02:31:43;50.50;;;25.37;;
2998;SDS011;1509;51.964;7.628;2023-04-29T02:34:08;51.40;;;23.53;;
2998;SDS011;1509;51.964;7.628;2023-04-29T02:36:34;45.97;;;25.17;;
2998;SDS011;1509;51.964;7.628;2023-04-29T02:38:59;50.77;;;27.27;;
2998;SDS011;1509;51.964;7.628;2023-04-29T02:41:25;48.23;;;27.63;;
2998;SDS011;1509;51.964;7.628;2023-04-29T02:43:51;51.67;;;28.00;;
2998;SDS011;1509;51.964;7.628;2023-04-29T02:46:17;55.87;;;27.27;;
2998;SDS011;1509;51.964;7.628;2023-04-29T02:48:43;49.17;;;27.77;;
2998;SDS011;1509;51.964;7.628;2023-04-29T02:51:09;58.40;;;29.80;;
2998;SDS011;1509;51.964;7.628;2023-04-29T02:53:35;54.03;;;27.60;;
2998;SDS011;1509;51.964;7.628;2023-04-29T02:56:00;52.57;;;28.80;;
2998;SDS011;1509;51.964;7.628;2023-04-29T02:58:26;50.33;;;28.70;;
2998;SDS011;1509;51.964;7.628;2023-04-29T03:00:51;59.03;;;30.20;;
2998;SDS011;1509;51.964;7.628;2023-04-29T03:03:17;52.47;;;28.40;;
2998;SDS011;1509;51.964;7.628;2023-04-29T03:05:43;61.77;;;33.07;;
2998;SDS011;1509;51.964;7.628;2023-04-29T03:08:09;48.90;;;28.03;;
2998;SDS011;1509;51.964;7.628;2023-04-29T03:10:35;61.13;;;30.87;;
2998;SDS011;1509;51.964;7.628;2023-04-29T03:13:00;54.70;;;30.20;;
2998;SDS011;1509;51.964;7.628;2023-04-29T03:15:26;57.10;;;30.40;;
2998;SDS011;1509;51.964;7.628;2023-04-29T03:17:52;56.97;;;30.77;;
2998;SDS011;1509;51.964;7.628;2023-04-29T03:20:18;56.87;;;29.97;;
2998;SDS011;1509;51.964;7.628;2023-04-29T03:22:46;52.67;;;28.00;;
2998;SDS011;1509;51.964;7.628;2023-04-29T03:25:12;55.50;;;31.20;;
2998;SDS011;1509;51.964;7.628;2023-04-29T03:27:38;51.20;;;31.23;;
2998;SDS011;1509;51.964;7.628;2023-04-29T03:30:06;53.43;;;28.67;;
2998;SDS011;1509;51.964;7.628;2023-04-29T03:32:32;56.37;;;29.83;;
2998;SDS011;1509;51.964;7.628;2023-04-29T03:34:57;50.43;;;28.40;;
2998;SDS011;1509;51.964;7.628;2023-04-29T03:37:23;48.70;;;29.93;;
2998;SDS011;1509;51.964;7.628;2023-04-29T03:39:52;45.60;;;27.97;;
2998;SDS011;1509;51.964;7.628;2023-04-29T03:42:17;48.73;;;28.00;;
2998;SDS011;1509;51.964;7.628;2023-04-29T03:44:43;50.00;;;29.43;;
2998;SDS011;1509;51.964;7.628;2023-04-29T03:47:08;51.13;;;29.17;;
2998;SDS011;1509;51.964;7.628;2023-04-29T03:49:34;43.27;;;27.20;;
2998;SDS011;1509;51.964;7.628;2023-04-29T03:52:00;44.40;;;26.80;;
2998;SDS011;1509;51.964;7.628;2023-04-29T03:54:25;43.43;;;28.10;;
2998;SDS011;1509;51.964;7.628;2023-04-29T03:56:51;50.00;;;27.70;;
2998;SDS011;1509;51.964;7.628;2023-04-29T03:59:18;48.97;;;27.73;;
2998;SDS011;1509;51.964;7.628;2023-04-29T04:01:43;42.20;;;26.93;;
2998;SDS011;1509;51.964;7.628;2023-04-29T04:04:09;43.87;;;26.60;;
2998;SDS011;1509;51.964;7.628;2023-04-29T04:06:34;43.80;;;26.37;;
2998;SDS011;1509;51.964;7.628;2023-04-29T04:09:00;45.57;;;26.73;;
2998;SDS011;1509;51.964;7.628;2023-04-29T04:11:25;48.20;;;27.67;;
2998;SDS011;1509;51.964;7.628;2023-04-29T04:13:51;46.17;;;27.10;;
2998;SDS011;1509;51.964;7.628;2023-04-29T04:16:17;51.53;;;27.53;;
2998;SDS011;1509;51.964;7.628;2023-04-29T04:18:43;43.13;;;26.40;;
2998;SDS011;1509;51.964;7.628;2023-04-29T04:21:10;40.00;;;25.10;;
2998;SDS011;1509;51.964;7.628;2023-04-29T04:23:36;46.40;;;27.03;;
2998;SDS011;1509;51.964;7.628;2023-04-29T04:26:04;46.60;;;26.53;;
2998;SDS011;1509;51.964;7.628;2023-04-29T04:28:30;45.20;;;27.10;;
2998;SDS011;1509;51.964;7.628;2023-04-29T04:30:56;42.27;;;26.43;;
2998;SDS011;1509;51.964;7.628;2023-04-29T04:33:22;47.23;;;26.83;;
2998;SDS011;1509;51.964;7.628;2023-04-29T04:35:48;46.27;;;26.37;;
2998;SDS011;1509;51.964;7.628;2023-04-29T04:38:14;41.13;;;26.00;;
2998;SDS011;1509;51.964;7.628;2023-04-29T04:40:40;48.77;;;29.10;;
2998;SDS011;1509;51.964;7.628;2023-04-29T04:43:08;49.03;;;28.17;;
2998;SDS011;1509;51.964;7.628;2023-04-29T04:45:34;44.30;;;27.73;;
2998;SDS011;1509;51.964;7.628;2023-04-29T04:48:00;44.00;;;26.50;;
2998;SDS011;1509;51.964;7.628;2023-04-29T04:50:27;45.00;;;25.63;;
2998;SDS011;1509;51.964;7.628;2023-04-29T04:52:55;50.43;;;28.97;;
2998;SDS011;1509;51.964;7.628;2023-04-29T04:55:21;42.83;;;26.10;;
2998;SDS011;1509;51.964;7.628;2023-04-29T04:57:47;42.23;;;25.23;;
2998;SDS011;1509;51.964;7.628;2023-04-29T05:00:13;44.67;;;26.60;;
2998;SDS011;1509;51.964;7.628;2023-04-29T05:02:39;50.53;;;29.10;;
2998;SDS011;1509;51.964;7.628;2023-04-29T05:05:05;50.10;;;28.13;;
2998;SDS011;1509;51.964;7.628;2023-04-29T05:07:31;47.90;;;28.60;;
2998;SDS011;1509;51.964;7.628;2023-04-29T05:09:57;46.33;;;27.57;;
2998;SDS011;1509;51.964;7.628;2023-04-29T05:12:26;44.83;;;27.00;;
2998;SDS011;1509;51.964;7.628;2023-04-29T05:14:54;42.90;;;23.53;;
2998;SDS011;1509;51.964;7.628;2023-04-29T05:17:23;56.70;;;28.87;;
2998;SDS011;1509;51.964;7.628;2023-04-29T05:19:48;48.70;;;28.43;;
2998;SDS011;1509;51.964;7.628;2023-04-29T05:22:15;49.30;;;27.20;;
2998;SDS011;1509;51.964;7.628;2023-04-29T05:24:40;50.07;;;28.73;;
2998;SDS011;1509;51.964;7.628;2023-04-29T05:27:06;43.97;;;26.57;;
2998;SDS011;1509;51.964;7.628;2023-04-29T05:29:31;45.77;;;25.43;;
2998;SDS011;1509;51.964;7.628;2023-04-29T05:31:57;48.53;;;25.60;;
2998;SDS011;1509;51.964;7.628;2023-04-29T05:34:23;43.50;;;26.27;;
2998;SDS011;1509;51.964;7.628;2023-04-29T05:36:49;43.90;;;25.40;;
2998;SDS011;1509;51.964;7.628;2023-04-29T05:39:14;44.20;;;25.77;;
2998;SDS011;1509;51.964;7.628;2023-04-29T05:41:41;40.50;;;23.43;;
2998;SDS011;1509;51.964;7.628;2023-04-29T05:44:07;46.77;;;26.37;;
2998;SDS011;1509;51.964;7.628;2023-04-29T05:46:33;44.03;;;26.30;;
2998;SDS011;1509;51.964;7.628;2023-04-29T05:48:59;42.10;;;26.30;;
2998;SDS011;1509;51.964;7.628;2023-04-29T05:51:24;49.93;;;29.83;;
2998;SDS011;1509;51.964;7.628;2023-04-29T05:53:52;47.83;;;28.10;;
2998;SDS011;1509;51.964;7.628;2023-04-29T05:56:18;51.93;;;29.20;;
2998;SDS011;1509;51.964;7.628;2023-04-29T05:58:44;51.03;;;28.90;;
2998;SDS011;1509;51.964;7.628;2023-04-29T06:01:09;50.97;;;30.33;;
2998;SDS011;1509;51.964;7.628;2023-04-29T06:03:35;52.30;;;31.00;;
2998;SDS011;1509;51.964;7.628;2023-04-29T06:06:01;54.07;;;28.60;;
2998;SDS011;1509;51.964;7.628;2023-04-29T06:08:27;52.63;;;30.43;;
2998;SDS011;1509;51.964;7.628;2023-04-29T06:10:54;53.67;;;28.37;;
2998;SDS011;1509;51.964;7.628;2023-04-29T06:13:19;53.60;;;28.03;;
2998;SDS011;1509;51.964;7.628;2023-04-29T06:15:45;54.03;;;30.47;;
2998;SDS011;1509;51.964;7.628;2023-04-29T06:18:11;57.43;;;30.93;;
2998;SDS011;1509;51.964;7.628;2023-04-29T06:20:36;54.37;;;30.13;;
2998;SDS011;1509;51.964;7.628;2023-04-29T06:23:02;48.17;;;28.37;;
2998;SDS011;1509;51.964;7.628;2023-04-29T06:25:29;47.70;;;27.90;;
2998;SDS011;1509;51.964;7.628;2023-04-29T06:27:55;52.30;;;31.57;;
2998;SDS011;1509;51.964;7.628;2023-04-29T06:30:21;52.00;;;29.67;;
2998;SDS011;1509;51.964;7.628;2023-04-29T06:32:47;47.00;;;27.83;;
2998;SDS011;1509;51.964;7.628;2023-04-29T06:35:13;56.47;;;29.87;;
2998;SDS011;1509;51.964;7.628;2023-04-29T06:37:39;47.93;;;28.37;;
2998;SDS011;1509;51.964;7.628;2023-04-29T06:40:05;55.93;;;30.47;;
2998;SDS011;1509;51.964;7.628;2023-04-29T06:42:31;55.33;;;31.30;;
2998;SDS011;1509;51.964;7.628;2023-04-29T06:44:57;52.30;;;31.13;;
2998;SDS011;1509;51.964;7.628;2023-04-29T06:47:23;54.67;;;29.80;;
2998;SDS011;1509;51.964;7.628;2023-04-29T06:49:49;52.53;;;29.90;;
2998;SDS011;1509;51.964;7.628;2023-04-29T06:52:14;49.60;;;28.80;;
2998;SDS011;1509;51.964;7.628;2023-04-29T06:54:40;54.03;;;30.07;;
2998;SDS011;1509;51.964;7.628;2023-04-29T06:57:06;56.57;;;32.30;;
2998;SDS011;1509;51.964;7.628;2023-04-29T06:59:31;54.30;;;31.23;;
2998;SDS011;1509;51.964;7.628;2023-04-29T07:01:57;51.70;;;30.30;;
2998;SDS011;1509;51.964;7.628;2023-04-29T07:04:25;53.87;;;33.67;;
2998;SDS011;1509;51.964;7.628;2023-04-29T07:06:51;59.40;;;33.90;;
2998;SDS011;1509;51.964;7.628;2023-04-29T07:09:17;57.23;;;31.77;;
2998;SDS011;1509;51.964;7.628;2023-04-29T07:11:43;46.10;;;30.67;;
2998;SDS011;1509;51.964;7.628;2023-04-29T07:14:09;54.00;;;30.57;;
2998;SDS011;1509;51.964;7.628;2023-04-29T07:16:35;57.03;;;30.27;;
2998;SDS011;1509;51.964;7.628;2023-04-29T07:19:00;53.53;;;31.57;;
2998;SDS011;1509;51.964;7.628;2023-04-29T07:21:26;59.63;;;31.53;;
2998;SDS011;1509;51.964;7.628;2023-04-29T07:23:52;52.07;;;29.37;;
2998;SDS011;1509;51.964;7.628;2023-04-29T07:26:19;51.33;;;31.20;;
2998;SDS011;1509;51.964;7.628;2023-04-29T07:28:46;45.47;;;27.33;;
2998;SDS011;1509;51.964;7.628;2023-04-29T07:31:12;52.27;;;29.10;;
2998;SDS011;1509;51.964;7.628;2023-04-29T07:33:38;52.90;;;29.90;;
2998;SDS011;1509;51.964;7.628;2023-04-29T07:36:04;53.40;;;27.03;;
2998;SDS011;1509;51.964;7.628;2023-04-29T07:38:31;49.23;;;29.20;;
2998;SDS011;1509;51.964;7.628;2023-04-29T07:40:57;49.10;;;28.30;;
2998;SDS011;1509;51.964;7.628;2023-04-29T07:43:28;49.83;;;28.97;;
2998;SDS011;1509;51.964;7.628;2023-04-29T07:45:54;47.07;;;27.57;;
2998;SDS011;1509;51.964;7.628;2023-04-29T07:48:19;43.27;;;28.10;;
2998;SDS011;1509;51.964;7.628;2023-04-29T07:50:45;39.97;;;24.83;;
2998;SDS011;1509;51.964;7.628;2023-04-29T07:53:11;36.40;;;22.57;;
2998;SDS011;1509;51.964;7.628;2023-04-29T07:55:37;38.57;;;24.93;;
2998;SDS011;1509;51.964;7.628;2023-04-29T07:58:02;37.03;;;23.60;;
2998;SDS011;1509;51.964;7.628;2023-04-29T08:00:28;41.03;;;23.47;;
2998;SDS011;1509;51.964;7.628;2023-04-29T08:02:55;32.23;;;22.30;;
2998;SDS011;1509;51.964;7.628;2023-04-29T08:05:22;40.03;;;24.30;;
2998;SDS011;1509;51.964;7.628;2023-04-29T08:07:48;33.50;;;22.97;;
2998;SDS011;1509;51.964;7.628;2023-04-29T08:10:14;32.53;;;23.70;;
2998;SDS011;1509;51.964;7.628;2023-04-29T08:12:41;33.57;;;24.70;;
2998;SDS011;1509;51.964;7.628;2023-04-29T08:15:10;37.20;;;22.83;;
2998;SDS011;1509;51.964;7.628;2023-04-29T08:17:35;39.50;;;24.80;;
2998;SDS011;1509;51.964;7.628;2023-04-29T08:20:01;38.90;;;24.20;;
2998;SDS011;1509;51.964;7.628;2023-04-29T08:22:30;37.70;;;25.20;;
2998;SDS011;1509;51.964;7.628;2023-04-29T08:24:55;39.03;;;22.80;;
2998;SDS011;1509;51.964;7.628;2023-04-29T08:27:24;30.27;;;21.57;;
2998;SDS011;1509;51.964;7.628;2023-04-29T08:29:49;34.90;;;23.33;;
2998;SDS011;1509;51.964;7.628;2023-04-29T08:32:15;33.33;;;22.97;;
2998;SDS011;1509;51.964;7.628;2023-04-29T08:34:41;30.90;;;20.70;;
2998;SDS011;1509;51.964;7.628;2023-04-29T08:37:08;36.73;;;22.57;;
2998;SDS011;1509;51.964;7.628;2023-04-29T08:39:34;36.40;;;23.63;;
2998;SDS011;1509;51.964;7.628;2023-04-29T08:42:06;36.63;;;23.23;;
2998;SDS011;1509;51.964;7.628;2023-04-29T08:44:33;34.33;;;22.73;;
2998;SDS011;1509;51.964;7.628;2023-04-29T08:46:59;36.97;;;23.03;;
2998;SDS011;1509;51.964;7.628;2023-04-29T08:49:27;35.13;;;21.43;;
2998;SDS011;1509;51.964;7.628;2023-04-29T08:51:53;30.27;;;20.87;;
2998;SDS011;1509;51.964;7.628;2023-04-29T08:54:19;32.93;;;21.37;;
2998;SDS011;1509;51.964;7.628;2023-04-29T08:56:45;29.60;;;20.40;;
2998;SDS011;1509;51.964;7.628;2023-04-29T08:59:14;31.20;;;21.20;;
2998;SDS011;1509;51.964;7.628;2023-04-29T09:01:41;27.30;;;19.53;;
2998;SDS011;1509;51.964;7.628;2023-04-29T09:04:14;29.63;;;19.50;;
2998;SDS011;1509;51.964;7.628;2023-04-29T09:07:04;24.20;;;18.07;;
2998;SDS011;1509;51.964;7.628;2023-04-29T09:09:34;25.77;;;19.90;;
2998;SDS011;1509;51.964;7.628;2023-04-29T09:12:01;23.80;;;16.83;;
2998;SDS011;1509;51.964;7.628;2023-04-29T09:14:26;25.13;;;17.90;;
2998;SDS011;1509;51.964;7.628;2023-04-29T09:16:54;28.87;;;18.30;;
2998;SDS011;1509;51.964;7.628;2023-04-29T09:19:30;31.27;;;18.77;;
2998;SDS011;1509;51.964;7.628;2023-04-29T09:21:57;26.77;;;18.93;;
2998;SDS011;1509;51.964;7.628;2023-04-29T09:24:26;25.77;;;18.33;;
2998;SDS011;1509;51.964;7.628;2023-04-29T09:26:54;23.67;;;16.33;;
2998;SDS011;1509;51.964;7.628;2023-04-29T09:29:20;25.63;;;16.27;;
2998;SDS011;1509;51.964;7.628;2023-04-29T09:31:46;24.80;;;17.23;;
2998;SDS011;1509;51.964;7.628;2023-04-29T09:34:12;25.80;;;18.03;;
2998;SDS011;1509;51.964;7.628;2023-04-29T09:36:45;22.67;;;16.97;;
2998;SDS011;1509;51.964;7.628;2023-04-29T09:39:19;25.20;;;16.57;;
2998;SDS011;1509;51.964;7.628;2023-04-29T09:44:18;22.00;;;15.73;;
2998;SDS011;1509;51.964;7.628;2023-04-29T09:47:06;24.80;;;15.97;;
2998;SDS011;1509;51.964;7.628;2023-04-29T09:49:34;19.47;;;16.20;;
2998;SDS011;1509;51.964;7.628;2023-04-29T09:52:06;24.90;;;17.77;;
2998;SDS011;1509;51.964;7.628;2023-04-29T09:54:32;22.20;;;14.80;;
2998;SDS011;1509;51.964;7.628;2023-04-29T09:57:00;22.13;;;15.10;;
2998;SDS011;1509;51.964;7.628;2023-04-29T09:59:27;23.00;;;16.67;;
2998;SDS011;1509;51.964;7.628;2023-04-29T10:01:56;22.43;;;15.90;;
2998;SDS011;1509;51.964;7.628;2023-04-29T10:04:27;19.70;;;15.27;;
2998;SDS011;1509;51.964;7.628;2023-04-29T10:06:55;23.27;;;16.13;;
2998;SDS011;1509;51.964;7.628;2023-04-29T10:09:24;21.47;;;14.83;;
2998;SDS011;1509;51.964;7.628;2023-04-29T10:11:50;19.10;;;15.17;;
2998;SDS011;1509;51.964;7.628;2023-04-29T10:19:18;18.90;;;14.10;;
2998;SDS011;1509;51.964;7.628;2023-04-29T10:21:52;19.13;;;14.67;;
2998;SDS011;1509;51.964;7.628;2023-04-29T10:24:19;21.23;;;14.03;;
2998;SDS011;1509;51.964;7.628;2023-04-29T10:26:48;17.60;;;12.40;;
2998;SDS011;1509;51.964;7.628;2023-04-29T10:29:16;20.60;;;14.23;;
2998;SDS011;1509;51.964;7.628;2023-04-29T10:31:43;20.60;;;15.00;;
2998;SDS011;1509;51.964;7.628;2023-04-29T10:34:10;18.13;;;14.20;;
2998;SDS011;1509;51.964;7.628;2023-04-29T10:36:37;16.70;;;13.33;;
2998;SDS011;1509;51.964;7.628;2023-04-29T10:39:04;19.90;;;13.93;;
2998;SDS011;1509;51.964;7.628;2023-04-29T10:41:42;19.43;;;14.70;;
2998;SDS011;1509;51.964;7.628;2023-04-29T10:44:17;15.30;;;12.50;;
2998;SDS011;1509;51.964;7.628;2023-04-29T10:46:45;18.23;;;13.00;;
2998;SDS011;1509;51.964;7.628;2023-04-29T10:49:11;16.50;;;13.97;;
2998;SDS011;1509;51.964;7.628;2023-04-29T10:56:41;15.13;;;11.60;;
2998;SDS011;1509;51.964;7.628;2023-04-29T10:59:13;16.33;;;12.57;;
2998;SDS011;1509;51.964;7.628;2023-04-29T11:01:41;14.87;;;11.73;;
2998;SDS011;1509;51.964;7.628;2023-04-29T11:04:08;15.63;;;11.67;;
2998;SDS011;1509;51.964;7.628;2023-04-29T11:17:09;13.90;;;11.90;;
2998;SDS011;1509;51.964;7.628;2023-04-29T11:19:42;13.70;;;11.90;;
2998;SDS011;1509;51.964;7.628;2023-04-29T11:27:30;18.47;;;11.63;;
2998;SDS011;1509;51.964;7.628;2023-04-29T11:29:58;14.57;;;12.20;;
2998;SDS011;1509;51.964;7.628;2023-04-29T11:32:26;18.07;;;12.70;;
2998;SDS011;1509;51.964;7.628;2023-04-29T11:34:53;13.47;;;11.67;;
2998;SDS011;1509;51.964;7.628;2023-04-29T11:37:19;14.30;;;11.87;;
2998;SDS011;1509;51.964;7.628;2023-04-29T11:39:49;15.03;;;11.97;;
2998;SDS011;1509;51.964;7.628;2023-04-29T11:42:19;12.10;;;10.43;;
2998;SDS011;1509;51.964;7.628;2023-04-29T11:44:46;13.80;;;10.97;;
2998;SDS011;1509;51.964;7.628;2023-04-29T11:47:15;16.57;;;11.70;;
2998;SDS011;1509;51.964;7.628;2023-04-29T11:49:40;15.17;;;11.37;;
2998;SDS011;1509;51.964;7.628;2023-04-29T11:52:07;15.70;;;10.67;;
2998;SDS011;1509;51.964;7.628;2023-04-29T11:54:32;12.23;;;10.83;;
2998;SDS011;1509;51.964;7.628;2023-04-29T11:56:58;16.93;;;11.80;;
2998;SDS011;1509;51.964;7.628;2023-04-29T11:59:24;15.37;;;11.80;;
2998;SDS011;1509;51.964;7.628;2023-04-29T12:01:51;11.37;;;9.73;;
2998;SDS011;1509;51.964;7.628;2023-04-29T12:04:16;14.40;;;10.27;;
2998;SDS011;1509;51.964;7.628;2023-04-29T12:06:43;12.17;;;10.90;;
2998;SDS011;1509;51.964;7.628;2023-04-29T12:09:09;14.27;;;11.07;;
2998;SDS011;1509;51.964;7.628;2023-04-29T12:11:35;14.30;;;11.57;;
2998;SDS011;1509;51.964;7.628;2023-04-29T12:14:02;13.13;;;10.93;;
2998;SDS011;1509;51.964;7.628;2023-04-29T12:16:30;15.07;;;11.47;;
2998;SDS011;1509;51.964;7.628;2023-04-29T12:18:57;13.83;;;11.50;;
2998;SDS011;1509;51.964;7.628;2023-04-29T12:21:23;16.70;;;11.53;;
2998;SDS011;1509;51.964;7.628;2023-04-29T12:23:51;14.37;;;11.27;;
2998;SDS011;1509;51.964;7.628;2023-04-29T12:26:17;15.70;;;11.03;;
2998;SDS011;1509;51.964;7.628;2023-04-29T12:28:44;15.97;;;11.50;;
2998;SDS011;1509;51.964;7.628;2023-04-29T12:31:13;13.90;;;10.00;;
2998;SDS011;1509;51.964;7.628;2023-04-29T12:33:41;12.13;;;10.43;;
2998;SDS011;1509;51.964;7.628;2023-04-29T12:36:14;18.50;;;10.60;;
2998;SDS011;1509;51.964;7.628;2023-04-29T12:38:44;16.10;;;10.70;;
2998;SDS011;1509;51.964;7.628;2023-04-29T12:41:11;11.80;;;9.73;;
2998;SDS011;1509;51.964;7.628;2023-04-29T12:43:40;13.20;;;10.17;;
2998;SDS011;1509;51.964;7.628;2023-04-29T12:46:06;15.03;;;10.33;;
2998;SDS011;1509;51.964;7.628;2023-04-29T12:48:33;12.17;;;9.10;;
2998;SDS011;1509;51.964;7.628;2023-04-29T12:51:01;16.77;;;10.30;;
2998;SDS011;1509;51.964;7.628;2023-04-29T12:53:30;13.07;;;10.87;;
2998;SDS011;1509;51.964;7.628;2023-04-29T12:55:56;12.20;;;9.50;;
2998;SDS011;1509;51.964;7.628;2023-04-29T12:58:23;14.40;;;10.13;;
2998;SDS011;1509;51.964;7.628;2023-04-29T13:00:49;13.63;;;9.73;;
2998;SDS011;1509;51.964;7.628;2023-04-29T13:03:14;12.60;;;9.70;;
2998;SDS011;1509;51.964;7.628;2023-04-29T13:05:40;13.47;;;11.00;;
2998;SDS011;1509;51.964;7.628;2023-04-29T13:08:06;11.60;;;9.37;;
2998;SDS011;1509;51.964;7.628;2023-04-29T13:10:33;18.23;;;11.37;;
2998;SDS011;1509;51.964;7.628;2023-04-29T13:12:59;15.00;;;10.27;;
2998;SDS011;1509;51.964;7.628;2023-04-29T13:15:25;12.40;;;10.00;;
2998;SDS011;1509;51.964;7.628;2023-04-29T13:17:51;16.83;;;11.17;;
2998;SDS011;1509;51.964;7.628;2023-04-29T13:20:17;14.13;;;9.20;;
2998;SDS011;1509;51.964;7.628;2023-04-29T13:22:43;13.90;;;10.03;;
2998;SDS011;1509;51.964;7.628;2023-04-29T13:25:11;17.90;;;10.67;;
2998;SDS011;1509;51.964;7.628;2023-04-29T13:27:37;12.17;;;8.77;;
2998;SDS011;1509;51.964;7.628;2023-04-29T13:30:04;12.97;;;9.40;;
2998;SDS011;1509;51.964;7.628;2023-04-29T13:32:30;11.23;;;9.23;;
2998;SDS011;1509;51.964;7.628;2023-04-29T13:34:56;15.40;;;10.63;;
2998;SDS011;1509;51.964;7.628;2023-04-29T13:37:21;14.53;;;10.17;;
2998;SDS011;1509;51.964;7.628;2023-04-29T13:39:47;14.10;;;9.87;;
2998;SDS011;1509;51.964;7.628;2023-04-29T13:42:13;12.60;;;10.10;;
2998;SDS011;1509;51.964;7.628;2023-04-29T13:44:39;11.93;;;9.10;;
2998;SDS011;1509;51.964;7.628;2023-04-29T13:47:08;13.57;;;8.43;;
2998;SDS011;1509;51.964;7.628;2023-04-29T13:49:35;13.40;;;9.63;;
2998;SDS011;1509;51.964;7.628;2023-04-29T13:52:01;12.93;;;9.17;;
2998;SDS011;1509;51.964;7.628;2023-04-29T13:54:27;12.00;;;8.03;;
2998;SDS011;1509;51.964;7.628;2023-04-29T13:56:52;10.27;;;7.50;;
2998;SDS011;1509;51.964;7.628;2023-04-29T13:59:18;11.77;;;8.10;;
2998;SDS011;1509;51.964;7.628;2023-04-29T14:01:44;8.17;;;7.07;;
2998;SDS011;1509;51.964;7.628;2023-04-29T14:04:10;9.70;;;6.40;;
2998;SDS011;1509;51.964;7.628;2023-04-29T14:06:35;9.27;;;6.60;;
2998;SDS011;1509;51.964;7.628;2023-04-29T14:09:01;7.27;;;5.70;;
2998;SDS011;1509;51.964;7.628;2023-04-29T14:11:28;4.77;;;3.80;;
2998;SDS011;1509;51.964;7.628;2023-04-29T14:13:54;6.23;;;4.20;;
2998;SDS011;1509;51.964;7.628;2023-04-29T14:16:20;9.10;;;4.73;;
2998;SDS011;1509;51.964;7.628;2023-04-29T14:18:45;6.33;;;4.03;;
2998;SDS011;1509;51.964;7.628;2023-04-29T14:21:11;5.87;;;4.90;;
2998;SDS011;1509;51.964;7.628;2023-04-29T14:23:37;5.70;;;4.70;;
2998;SDS011;1509;51.964;7.628;2023-04-29T14:26:03;8.13;;;4.50;;
2998;SDS011;1509;51.964;7.628;2023-04-29T14:28:29;8.30;;;4.93;;
2998;SDS011;1509;51.964;7.628;2023-04-29T14:30:59;5.57;;;4.00;;
2998;SDS011;1509;51.964;7.628;2023-04-29T14:33:24;6.67;;;4.80;;
2998;SDS011;1509;51.964;7.628;2023-04-29T14:35:50;5.30;;;4.30;;
2998;SDS011;1509;51.964;7.628;2023-04-29T14:38:19;7.13;;;4.40;;
2998;SDS011;1509;51.964;7.628;2023-04-29T14:40:45;6.57;;;4.67;;
2998;SDS011;1509;51.964;7.628;2023-04-29T14:43:11;6.10;;;4.20;;
2998;SDS011;1509;51.964;7.628;2023-04-29T14:45:37;7.83;;;5.43;;
2998;SDS011;1509;51.964;7.628;2023-04-29T14:48:04;9.17;;;5.20;;
2998;SDS011;1509;51.964;7.628;2023-04-29T14:50:30;6.10;;;4.43;;
2998;SDS011;1509;51.964;7.628;2023-04-29T14:52:56;6.50;;;5.30;;
2998;SDS011;1509;51.964;7.628;2023-04-29T14:55:22;4.63;;;3.90;;
2998;SDS011;1509;51.964;7.628;2023-04-29T14:57:47;5.10;;;4.10;;
2998;SDS011;1509;51.964;7.628;2023-04-29T15:00:13;5.90;;;3.93;;
2998;SDS011;1509;51.964;7.628;2023-04-29T15:02:39;6.37;;;4.37;;
2998;SDS011;1509;51.964;7.628;2023-04-29T15:05:05;6.97;;;4.07;;
2998;SDS011;1509;51.964;7.628;2023-04-29T15:07:31;5.63;;;4.30;;
2998;SDS011;1509;51.964;7.628;2023-04-29T15:09:57;4.17;;;3.77;;
2998;SDS011;1509;51.964;7.628;2023-04-29T15:12:23;6.93;;;4.57;;
2998;SDS011;1509;51.964;7.628;2023-04-29T15:14:49;8.37;;;4.70;;
2998;SDS011;1509;51.964;7.628;2023-04-29T15:17:16;5.90;;;3.67;;
2998;SDS011;1509;51.964;7.628;2023-04-29T15:19:42;5.40;;;3.93;;
2998;SDS011;1509;51.964;7.628;2023-04-29T15:22:11;6.10;;;4.60;;